sensor_id;sensor_type;location;lat;lon;timestamp;pressure;altitude;pressure_sealevel;temperature;humidity
32237;BME280;18726;44.732;10.550;2023-08-20T00:01:45;101240.56;;;27.95;100.00
32237;BME280;18726;44.732;10.550;2023-08-20T00:04:49;101234.31;;;27.91;100.00
32237;BME280;18726;44.732;10.550;2023-08-20T00:07:54;101237.44;;;27.93;100.00
32237;BME280;18726;44.732;10.550;2023-08-20T00:10:57;101236.44;;;27.87;100.00
32237;BME280;18726;44.732;10.550;2023-08-20T00:14:01;101240.72;;;27.79;100.00
32237;BME280;18726;44.732;10.550;2023-08-20T00:17:05;101239.81;;;27.82;100.00
32237;BME280;18726;44.732;10.550;2023-08-20T00:20:09;101238.94;;;27.72;100.00
32237;BME280;18726;44.732;10.550;2023-08-20T00:23:16;101236.28;;;27.56;100.00
32237;BME280;18726;44.732;10.550;2023-08-20T00:26:20;101252.09;;;27.84;93.10
32237;BME280;18726;44.732;10.550;2023-08-20T00:29:23;101239.25;;;28.21;92.13
32237;BME280;18726;44.732;10.550;2023-08-20T00:32:27;101242.66;;;28.47;89.43
32237;BME280;18726;44.732;10.550;2023-08-20T00:35:32;101241.78;;;28.60;83.13
32237;BME280;18726;44.732;10.550;2023-08-20T00:38:36;101233.59;;;28.65;84.07
32237;BME280;18726;44.732;10.550;2023-08-20T00:41:40;101235.13;;;28.57;89.41
32237;BME280;18726;44.732;10.550;2023-08-20T00:44:44;101240.72;;;28.35;98.54
32237;BME280;18726;44.732;10.550;2023-08-20T00:47:48;101229.66;;;28.32;100.00
32237;BME280;18726;44.732;10.550;2023-08-20T00:50:53;101234.19;;;27.95;100.00
32237;BME280;18726;44.732;10.550;2023-08-20T00:53:57;101238.75;;;27.67;100.00
32237;BME280;18726;44.732;10.550;2023-08-20T00:57:01;101235.53;;;27.43;100.00
32237;BME280;18726;44.732;10.550;2023-08-20T01:00:07;101237.78;;;27.35;100.00
32237;BME280;18726;44.732;10.550;2023-08-20T01:03:14;101234.09;;;27.26;100.00
32237;BME280;18726;44.732;10.550;2023-08-20T01:10:08;101233.13;;;27.07;100.00
32237;BME280;18726;44.732;10.550;2023-08-20T01:13:17;101238.16;;;27.12;100.00
32237;BME280;18726;44.732;10.550;2023-08-20T01:16:20;101242.03;;;27.27;100.00
32237;BME280;18726;44.732;10.550;2023-08-20T01:19:24;101243.91;;;27.17;100.00
32237;BME280;18726;44.732;10.550;2023-08-20T01:29:22;101243.91;;;27.30;100.00
32237;BME280;18726;44.732;10.550;2023-08-20T01:32:26;101249.25;;;27.63;99.12
32237;BME280;18726;44.732;10.550;2023-08-20T01:35:30;101256.22;;;27.80;93.57
32237;BME280;18726;44.732;10.550;2023-08-20T01:38:51;101253.16;;;28.00;93.38
32237;BME280;18726;44.732;10.550;2023-08-20T01:41:55;101259.91;;;28.11;88.75
32237;BME280;18726;44.732;10.550;2023-08-20T01:44:59;101270.44;;;28.07;86.52
32237;BME280;18726;44.732;10.550;2023-08-20T01:48:03;101270.44;;;28.07;88.66
32237;BME280;18726;44.732;10.550;2023-08-20T01:51:09;101277.44;;;27.90;88.49
32237;BME280;18726;44.732;10.550;2023-08-20T01:54:13;101278.69;;;27.76;92.92
32237;BME280;18726;44.732;10.550;2023-08-20T01:57:17;101276.91;;;27.57;96.88
32237;BME280;18726;44.732;10.550;2023-08-20T02:00:21;101282.19;;;27.42;100.00
32237;BME280;18726;44.732;10.550;2023-08-20T02:03:24;101274.94;;;27.32;97.02
32237;BME280;18726;44.732;10.550;2023-08-20T02:06:28;101277.16;;;26.99;100.00
32237;BME280;18726;44.732;10.550;2023-08-20T02:09:33;101275.91;;;26.87;100.00
32237;BME280;18726;44.732;10.550;2023-08-20T02:12:36;101275.91;;;26.87;100.00
32237;BME280;18726;44.732;10.550;2023-08-20T02:15:41;101278.34;;;26.85;100.00
32237;BME280;18726;44.732;10.550;2023-08-20T02:18:44;101279.19;;;26.99;100.00
32237;BME280;18726;44.732;10.550;2023-08-20T02:21:48;101282.53;;;27.06;100.00
32237;BME280;18726;44.732;10.550;2023-08-20T02:24:52;101289.34;;;27.18;95.77
32237;BME280;18726;44.732;10.550;2023-08-20T02:27:56;101288.09;;;27.19;92.65
32237;BME280;18726;44.732;10.550;2023-08-20T02:31:04;101290.69;;;27.26;89.51
32237;BME280;18726;44.732;10.550;2023-08-20T02:34:08;101293.25;;;27.33;90.15
32237;BME280;18726;44.732;10.550;2023-08-20T02:37:12;101300.06;;;27.32;89.64
32237;BME280;18726;44.732;10.550;2023-08-20T02:40:15;101297.59;;;27.34;89.51
32237;BME280;18726;44.732;10.550;2023-08-20T02:43:19;101299.28;;;27.32;88.35
32237;BME280;18726;44.732;10.550;2023-08-20T02:46:23;101292.91;;;27.31;85.65
32237;BME280;18726;44.732;10.550;2023-08-20T02:49:26;101297.72;;;27.31;91.66
32237;BME280;18726;44.732;10.550;2023-08-20T02:52:30;101289.69;;;27.33;88.34
32237;BME280;18726;44.732;10.550;2023-08-20T02:55:34;101293.63;;;26.94;100.00
32237;BME280;18726;44.732;10.550;2023-08-20T02:58:38;101284.75;;;26.57;100.00
32237;BME280;18726;44.732;10.550;2023-08-20T03:01:42;101282.81;;;26.12;100.00
32237;BME280;18726;44.732;10.550;2023-08-20T03:04:46;101286.94;;;25.75;100.00
32237;BME280;18726;44.732;10.550;2023-08-20T03:07:50;101291.69;;;25.42;100.00
32237;BME280;18726;44.732;10.550;2023-08-20T03:10:53;101288.41;;;25.31;100.00
32237;BME280;18726;44.732;10.550;2023-08-20T03:13:57;101287.44;;;25.38;100.00
32237;BME280;18726;44.732;10.550;2023-08-20T03:17:00;101282.31;;;25.36;100.00
32237;BME280;18726;44.732;10.550;2023-08-20T03:20:05;101280.56;;;25.26;100.00
32237;BME280;18726;44.732;10.550;2023-08-20T03:23:10;101284.22;;;25.23;100.00
32237;BME280;18726;44.732;10.550;2023-08-20T03:26:13;101285.09;;;25.36;100.00
32237;BME280;18726;44.732;10.550;2023-08-20T03:29:17;101282.50;;;25.62;100.00
32237;BME280;18726;44.732;10.550;2023-08-20T03:32:21;101288.41;;;25.96;100.00
32237;BME280;18726;44.732;10.550;2023-08-20T03:35:25;101288.34;;;25.83;100.00
32237;BME280;18726;44.732;10.550;2023-08-20T03:38:30;101285.72;;;25.93;100.00
32237;BME280;18726;44.732;10.550;2023-08-20T03:41:34;101288.06;;;25.94;100.00
32237;BME280;18726;44.732;10.550;2023-08-20T03:44:38;101289.53;;;25.99;100.00
32237;BME280;18726;44.732;10.550;2023-08-20T03:47:41;101285.06;;;26.17;100.00
32237;BME280;18726;44.732;10.550;2023-08-20T03:50:47;101286.84;;;26.40;100.00
32237;BME280;18726;44.732;10.550;2023-08-20T03:53:53;101287.66;;;26.53;100.00
32237;BME280;18726;44.732;10.550;2023-08-20T03:56:57;101291.00;;;26.61;100.00
32237;BME280;18726;44.732;10.550;2023-08-20T04:00:01;101290.56;;;26.50;100.00
32237;BME280;18726;44.732;10.550;2023-08-20T04:03:04;101295.44;;;26.46;100.00
32237;BME280;18726;44.732;10.550;2023-08-20T04:06:08;101294.16;;;26.34;100.00
32237;BME280;18726;44.732;10.550;2023-08-20T04:09:11;101293.72;;;25.90;100.00
32237;BME280;18726;44.732;10.550;2023-08-20T04:12:16;101292.06;;;25.61;100.00
32237;BME280;18726;44.732;10.550;2023-08-20T04:15:20;101291.69;;;25.42;100.00
32237;BME280;18726;44.732;10.550;2023-08-20T04:18:24;101296.94;;;25.56;100.00
32237;BME280;18726;44.732;10.550;2023-08-20T04:21:28;101298.69;;;25.83;100.00
32237;BME280;18726;44.732;10.550;2023-08-20T04:24:32;101311.53;;;26.09;100.00
32237;BME280;18726;44.732;10.550;2023-08-20T04:27:36;101305.41;;;26.31;100.00
32237;BME280;18726;44.732;10.550;2023-08-20T04:30:40;101305.59;;;26.23;100.00
32237;BME280;18726;44.732;10.550;2023-08-20T04:33:45;101312.47;;;26.19;100.00
32237;BME280;18726;44.732;10.550;2023-08-20T04:36:51;101318.50;;;26.46;96.78
32237;BME280;18726;44.732;10.550;2023-08-20T04:39:55;101319.28;;;26.76;97.08
32237;BME280;18726;44.732;10.550;2023-08-20T04:43:00;101318.50;;;26.75;100.00
32237;BME280;18726;44.732;10.550;2023-08-20T04:46:04;101319.03;;;26.70;100.00
32237;BME280;18726;44.732;10.550;2023-08-20T04:49:08;101317.47;;;27.11;100.00
32237;BME280;18726;44.732;10.550;2023-08-20T04:52:12;101320.78;;;27.82;100.00
32237;BME280;18726;44.732;10.550;2023-08-20T04:55:16;101336.28;;;28.43;93.52
32237;BME280;18726;44.732;10.550;2023-08-20T04:58:20;101338.28;;;29.08;88.29
32237;BME280;18726;44.732;10.550;2023-08-20T05:01:24;101339.16;;;29.76;81.79
32237;BME280;18726;44.732;10.550;2023-08-20T05:04:28;101340.84;;;30.59;77.37
32237;BME280;18726;44.732;10.550;2023-08-20T05:07:32;101349.13;;;31.23;75.09
32237;BME280;18726;44.732;10.550;2023-08-20T05:10:36;101353.44;;;32.23;71.13
32237;BME280;18726;44.732;10.550;2023-08-20T05:13:40;101360.09;;;32.64;69.05
32237;BME280;18726;44.732;10.550;2023-08-20T05:16:44;101357.81;;;33.36;66.71
32237;BME280;18726;44.732;10.550;2023-08-20T05:19:48;101360.16;;;33.93;64.77
32237;BME280;18726;44.732;10.550;2023-08-20T05:22:52;101359.19;;;33.96;61.21
32237;BME280;18726;44.732;10.550;2023-08-20T05:25:56;101355.63;;;34.42;61.08
32237;BME280;18726;44.732;10.550;2023-08-20T05:29:00;101358.47;;;33.81;62.19
32237;BME280;18726;44.732;10.550;2023-08-20T05:32:05;101360.91;;;33.38;65.02
32237;BME280;18726;44.732;10.550;2023-08-20T05:35:08;101370.16;;;33.59;63.17
32237;BME280;18726;44.732;10.550;2023-08-20T05:38:13;101377.09;;;33.93;63.10
32237;BME280;18726;44.732;10.550;2023-08-20T05:41:17;101372.81;;;35.16;60.46
32237;BME280;18726;44.732;10.550;2023-08-20T05:44:21;101379.47;;;35.87;56.47
32237;BME280;18726;44.732;10.550;2023-08-20T05:47:24;101381.50;;;36.35;55.91
32237;BME280;18726;44.732;10.550;2023-08-20T05:50:28;101385.97;;;37.64;50.75
32237;BME280;18726;44.732;10.550;2023-08-20T05:53:32;101388.00;;;37.86;51.15
32237;BME280;18726;44.732;10.550;2023-08-20T05:56:36;101381.66;;;39.09;47.55
32237;BME280;18726;44.732;10.550;2023-08-20T05:59:39;101395.03;;;38.37;47.20
32237;BME280;18726;44.732;10.550;2023-08-20T06:02:43;101390.28;;;38.62;46.95
32237;BME280;18726;44.732;10.550;2023-08-20T06:05:48;101403.97;;;37.89;49.18
32237;BME280;18726;44.732;10.550;2023-08-20T06:08:52;101400.78;;;38.21;48.67
32237;BME280;18726;44.732;10.550;2023-08-20T06:11:56;101394.78;;;38.82;47.27
32237;BME280;18726;44.732;10.550;2023-08-20T06:14:59;101391.13;;;39.23;46.36
32237;BME280;18726;44.732;10.550;2023-08-20T06:18:03;101396.50;;;39.80;44.88
32237;BME280;18726;44.732;10.550;2023-08-20T06:21:07;101393.41;;;40.22;43.66
32237;BME280;18726;44.732;10.550;2023-08-20T06:24:11;101400.72;;;40.73;43.01
32237;BME280;18726;44.732;10.550;2023-08-20T06:27:14;101405.63;;;41.69;40.79
32237;BME280;18726;44.732;10.550;2023-08-20T06:30:18;101398.66;;;41.06;41.86
32237;BME280;18726;44.732;10.550;2023-08-20T06:33:22;101398.50;;;40.66;41.95
32237;BME280;18726;44.732;10.550;2023-08-20T06:36:26;101408.22;;;40.76;41.64
32237;BME280;18726;44.732;10.550;2023-08-20T06:39:30;101403.72;;;41.00;41.08
32237;BME280;18726;44.732;10.550;2023-08-20T06:42:33;101407.53;;;42.74;39.33
32237;BME280;18726;44.732;10.550;2023-08-20T06:45:37;101406.38;;;45.67;35.73
32237;BME280;18726;44.732;10.550;2023-08-20T06:48:41;101409.63;;;47.76;32.29
32237;BME280;18726;44.732;10.550;2023-08-20T06:51:44;101406.88;;;49.30;30.27
32237;BME280;18726;44.732;10.550;2023-08-20T06:54:47;101405.34;;;49.39;29.86
32237;BME280;18726;44.732;10.550;2023-08-20T06:57:51;101401.41;;;49.24;30.07
32237;BME280;18726;44.732;10.550;2023-08-20T07:00:55;101406.44;;;50.80;28.19
32237;BME280;18726;44.732;10.550;2023-08-20T07:03:59;101408.03;;;50.93;27.01
32237;BME280;18726;44.732;10.550;2023-08-20T07:07:03;101405.59;;;51.42;26.17
32237;BME280;18726;44.732;10.550;2023-08-20T07:10:08;101405.09;;;50.12;27.16
32237;BME280;18726;44.732;10.550;2023-08-20T07:13:12;101408.75;;;51.88;25.93
32237;BME280;18726;44.732;10.550;2023-08-20T07:16:16;101397.69;;;50.49;26.27
32237;BME280;18726;44.732;10.550;2023-08-20T07:19:19;101406.53;;;50.51;26.59
32237;BME280;18726;44.732;10.550;2023-08-20T07:22:23;101407.25;;;48.17;28.08
32237;BME280;18726;44.732;10.550;2023-08-20T07:25:27;101401.53;;;46.98;29.12
32237;BME280;18726;44.732;10.550;2023-08-20T07:28:30;101410.66;;;47.88;28.32
32237;BME280;18726;44.732;10.550;2023-08-20T07:31:53;101408.75;;;46.49;30.20
32237;BME280;18726;44.732;10.550;2023-08-20T07:34:56;101397.84;;;45.92;30.46
32237;BME280;18726;44.732;10.550;2023-08-20T07:38:00;101402.69;;;46.37;30.50
32237;BME280;18726;44.732;10.550;2023-08-20T07:41:03;101409.94;;;46.46;30.52
32237;BME280;18726;44.732;10.550;2023-08-20T07:44:07;101402.47;;;45.95;30.95
32237;BME280;18726;44.732;10.550;2023-08-20T07:47:10;101406.19;;;46.21;29.93
32237;BME280;18726;44.732;10.550;2023-08-20T07:50:14;101412.25;;;46.40;31.22
32237;BME280;18726;44.732;10.550;2023-08-20T07:53:18;101422.53;;;47.92;30.17
32237;BME280;18726;44.732;10.550;2023-08-20T07:56:22;101419.75;;;48.29;28.63
32237;BME280;18726;44.732;10.550;2023-08-20T07:59:26;101423.31;;;49.47;27.84
32237;BME280;18726;44.732;10.550;2023-08-20T08:02:30;101416.59;;;48.34;27.91
32237;BME280;18726;44.732;10.550;2023-08-20T08:05:33;101421.22;;;49.11;27.48
32237;BME280;18726;44.732;10.550;2023-08-20T08:08:42;101415.81;;;48.07;29.43
32237;BME280;18726;44.732;10.550;2023-08-20T08:11:48;101416.53;;;48.25;28.53
32237;BME280;18726;44.732;10.550;2023-08-20T08:14:52;101407.66;;;48.57;28.02
32237;BME280;18726;44.732;10.550;2023-08-20T08:17:55;101416.84;;;49.19;27.14
32237;BME280;18726;44.732;10.550;2023-08-20T08:20:59;101407.53;;;48.38;28.50
32237;BME280;18726;44.732;10.550;2023-08-20T08:24:04;101412.25;;;50.11;26.73
32237;BME280;18726;44.732;10.550;2023-08-20T08:27:08;101421.56;;;51.00;26.55
32237;BME280;18726;44.732;10.550;2023-08-20T08:30:12;101421.97;;;50.25;27.00
32237;BME280;18726;44.732;10.550;2023-08-20T08:33:16;101416.19;;;49.67;26.69
32237;BME280;18726;44.732;10.550;2023-08-20T08:36:19;101409.13;;;47.53;28.64
32237;BME280;18726;44.732;10.550;2023-08-20T08:39:23;101402.06;;;47.04;31.01
32237;BME280;18726;44.732;10.550;2023-08-20T08:42:27;101405.75;;;46.97;30.06
32237;BME280;18726;44.732;10.550;2023-08-20T08:45:32;101411.19;;;45.34;31.67
32237;BME280;18726;44.732;10.550;2023-08-20T08:48:36;101397.47;;;46.03;31.20
32237;BME280;18726;44.732;10.550;2023-08-20T08:51:42;101401.63;;;45.62;32.17
32237;BME280;18726;44.732;10.550;2023-08-20T08:54:47;101397.13;;;44.55;33.01
32237;BME280;18726;44.732;10.550;2023-08-20T08:57:51;101398.69;;;44.78;34.08
32237;BME280;18726;44.732;10.550;2023-08-20T09:00:55;101389.00;;;44.23;33.10
32237;BME280;18726;44.732;10.550;2023-08-20T09:03:59;101382.03;;;43.67;34.83
32237;BME280;18726;44.732;10.550;2023-08-20T09:07:02;101385.13;;;42.44;36.96
32237;BME280;18726;44.732;10.550;2023-08-20T09:10:06;101383.94;;;42.94;35.39
32237;BME280;18726;44.732;10.550;2023-08-20T09:13:11;101383.59;;;42.98;36.25
32237;BME280;18726;44.732;10.550;2023-08-20T09:16:15;101368.72;;;43.49;35.81
32237;BME280;18726;44.732;10.550;2023-08-20T09:19:18;101376.81;;;42.88;36.90
32237;BME280;18726;44.732;10.550;2023-08-20T09:22:21;101368.78;;;43.56;35.53
32237;BME280;18726;44.732;10.550;2023-08-20T09:25:26;101370.84;;;42.44;35.93
32237;BME280;18726;44.732;10.550;2023-08-20T09:28:41;101368.53;;;43.47;34.87
32237;BME280;18726;44.732;10.550;2023-08-20T09:31:45;101363.94;;;43.43;34.21
32237;BME280;18726;44.732;10.550;2023-08-20T09:34:52;101372.56;;;43.02;36.01
32237;BME280;18726;44.732;10.550;2023-08-20T09:38:00;101363.97;;;40.89;38.61
32237;BME280;18726;44.732;10.550;2023-08-20T09:41:05;101366.72;;;41.26;37.61
32237;BME280;18726;44.732;10.550;2023-08-20T09:44:09;101364.22;;;42.49;36.27
32237;BME280;18726;44.732;10.550;2023-08-20T09:47:13;101366.22;;;41.80;37.68
32237;BME280;18726;44.732;10.550;2023-08-20T09:50:18;101359.03;;;41.87;38.96
32237;BME280;18726;44.732;10.550;2023-08-20T09:53:35;101363.47;;;41.75;35.65
32237;BME280;18726;44.732;10.550;2023-08-20T09:56:39;101368.19;;;42.46;36.69
32237;BME280;18726;44.732;10.550;2023-08-20T09:59:44;101356.97;;;40.39;38.88
32237;BME280;18726;44.732;10.550;2023-08-20T10:02:50;101359.50;;;39.02;41.79
32237;BME280;18726;44.732;10.550;2023-08-20T10:05:55;101350.84;;;39.19;41.24
32237;BME280;18726;44.732;10.550;2023-08-20T10:09:00;101353.09;;;39.99;40.94
32237;BME280;18726;44.732;10.550;2023-08-20T10:12:04;101358.00;;;40.17;39.71
32237;BME280;18726;44.732;10.550;2023-08-20T10:15:09;101340.53;;;39.64;41.11
32237;BME280;18726;44.732;10.550;2023-08-20T10:18:13;101340.59;;;39.59;41.47
32237;BME280;18726;44.732;10.550;2023-08-20T10:21:17;101345.84;;;38.65;44.10
32237;BME280;18726;44.732;10.550;2023-08-20T10:24:23;101340.38;;;37.68;46.36
32237;BME280;18726;44.732;10.550;2023-08-20T10:27:28;101336.28;;;38.98;43.51
32237;BME280;18726;44.732;10.550;2023-08-20T10:30:34;101338.69;;;38.88;44.87
32237;BME280;18726;44.732;10.550;2023-08-20T10:36:50;101343.50;;;39.77;43.45
32237;BME280;18726;44.732;10.550;2023-08-20T10:39:55;101341.13;;;39.33;42.88
32237;BME280;18726;44.732;10.550;2023-08-20T10:43:04;101333.19;;;38.96;44.59
32237;BME280;18726;44.732;10.550;2023-08-20T10:46:15;101331.28;;;38.38;45.22
32237;BME280;18726;44.732;10.550;2023-08-20T10:49:21;101327.31;;;38.88;45.08
32237;BME280;18726;44.732;10.550;2023-08-20T10:52:26;101335.97;;;39.31;45.83
32237;BME280;18726;44.732;10.550;2023-08-20T10:55:32;101333.31;;;39.14;45.56
32237;BME280;18726;44.732;10.550;2023-08-20T10:58:45;101318.75;;;38.94;44.24
32237;BME280;18726;44.732;10.550;2023-08-20T11:01:51;101321.88;;;39.44;45.68
32237;BME280;18726;44.732;10.550;2023-08-20T11:04:56;101310.38;;;39.07;45.88
32237;BME280;18726;44.732;10.550;2023-08-20T11:08:03;101307.28;;;39.05;46.06
32237;BME280;18726;44.732;10.550;2023-08-20T11:11:11;101315.66;;;37.46;49.82
32237;BME280;18726;44.732;10.550;2023-08-20T11:14:18;101307.53;;;37.89;49.57
32237;BME280;18726;44.732;10.550;2023-08-20T11:17:22;101303.66;;;38.39;48.22
32237;BME280;18726;44.732;10.550;2023-08-20T11:20:26;101306.94;;;38.48;46.61
32237;BME280;18726;44.732;10.550;2023-08-20T11:23:30;101300.19;;;38.57;46.71
32237;BME280;18726;44.732;10.550;2023-08-20T11:26:35;101294.81;;;38.07;48.18
32237;BME280;18726;44.732;10.550;2023-08-20T11:29:42;101300.22;;;37.36;51.22
32237;BME280;18726;44.732;10.550;2023-08-20T11:32:50;101295.25;;;37.59;50.27
32237;BME280;18726;44.732;10.550;2023-08-20T11:35:56;101286.63;;;36.78;51.87
32237;BME280;18726;44.732;10.550;2023-08-20T11:39:00;101301.16;;;37.61;46.87
32237;BME280;18726;44.732;10.550;2023-08-20T11:42:04;101296.16;;;37.89;47.77
32237;BME280;18726;44.732;10.550;2023-08-20T11:45:10;101290.75;;;36.89;50.62
32237;BME280;18726;44.732;10.550;2023-08-20T11:48:15;101296.41;;;37.22;52.76
32237;BME280;18726;44.732;10.550;2023-08-20T11:51:19;101295.09;;;37.01;50.85
32237;BME280;18726;44.732;10.550;2023-08-20T11:54:23;101287.56;;;37.42;50.72
32237;BME280;18726;44.732;10.550;2023-08-20T11:57:29;101290.59;;;37.67;47.44
32237;BME280;18726;44.732;10.550;2023-08-20T12:00:33;101286.31;;;38.01;47.62
32237;BME280;18726;44.732;10.550;2023-08-20T12:03:40;101290.06;;;38.67;47.81
32237;BME280;18726;44.732;10.550;2023-08-20T12:06:43;101289.28;;;38.26;46.18
32237;BME280;18726;44.732;10.550;2023-08-20T12:09:47;101292.00;;;37.04;46.11
32237;BME280;18726;44.732;10.550;2023-08-20T12:12:52;101289.66;;;37.36;44.31
32237;BME280;18726;44.732;10.550;2023-08-20T12:15:56;101293.94;;;37.71;46.04
32237;BME280;18726;44.732;10.550;2023-08-20T12:19:00;101280.84;;;38.50;44.42
32237;BME280;18726;44.732;10.550;2023-08-20T12:22:03;101270.28;;;38.80;44.40
32237;BME280;18726;44.732;10.550;2023-08-20T12:25:07;101280.47;;;38.35;42.15
32237;BME280;18726;44.732;10.550;2023-08-20T12:28:12;101274.94;;;38.48;41.65
32237;BME280;18726;44.732;10.550;2023-08-20T12:31:15;101266.22;;;39.00;42.19
32237;BME280;18726;44.732;10.550;2023-08-20T12:34:19;101272.25;;;39.45;42.26
32237;BME280;18726;44.732;10.550;2023-08-20T12:37:25;101265.28;;;38.27;45.49
32237;BME280;18726;44.732;10.550;2023-08-20T12:40:28;101265.66;;;37.48;46.05
32237;BME280;18726;44.732;10.550;2023-08-20T12:43:33;101262.38;;;37.22;50.67
32237;BME280;18726;44.732;10.550;2023-08-20T12:46:38;101263.34;;;37.47;47.06
32237;BME280;18726;44.732;10.550;2023-08-20T12:49:41;101256.78;;;38.27;44.36
32237;BME280;18726;44.732;10.550;2023-08-20T12:52:45;101253.94;;;37.80;43.08
32237;BME280;18726;44.732;10.550;2023-08-20T12:55:50;101249.34;;;37.66;44.51
32237;BME280;18726;44.732;10.550;2023-08-20T12:58:54;101252.69;;;37.70;47.88
32237;BME280;18726;44.732;10.550;2023-08-20T13:01:58;101247.69;;;37.87;46.02
32237;BME280;18726;44.732;10.550;2023-08-20T13:05:02;101247.34;;;38.43;45.14
32237;BME280;18726;44.732;10.550;2023-08-20T13:08:07;101237.19;;;38.59;42.55
32237;BME280;18726;44.732;10.550;2023-08-20T13:11:13;101245.75;;;38.12;46.19
32237;BME280;18726;44.732;10.550;2023-08-20T13:14:20;101240.28;;;36.65;50.84
32237;BME280;18726;44.732;10.550;2023-08-20T13:17:25;101246.69;;;37.21;49.12
32237;BME280;18726;44.732;10.550;2023-08-20T13:20:29;101243.34;;;36.72;48.61
32237;BME280;18726;44.732;10.550;2023-08-20T13:23:33;101243.03;;;37.26;45.58
32237;BME280;18726;44.732;10.550;2023-08-20T13:26:37;101227.19;;;37.59;43.97
32237;BME280;18726;44.732;10.550;2023-08-20T13:29:41;101226.16;;;38.44;44.88
32237;BME280;18726;44.732;10.550;2023-08-20T13:32:45;101226.25;;;38.38;43.23
32237;BME280;18726;44.732;10.550;2023-08-20T13:35:48;101225.97;;;38.01;43.51
32237;BME280;18726;44.732;10.550;2023-08-20T13:38:52;101222.56;;;37.56;43.27
32237;BME280;18726;44.732;10.550;2023-08-20T13:41:56;101218.72;;;38.05;43.47
32237;BME280;18726;44.732;10.550;2023-08-20T13:44:59;101212.75;;;37.68;46.84
32237;BME280;18726;44.732;10.550;2023-08-20T13:48:04;101210.88;;;38.23;45.11
32237;BME280;18726;44.732;10.550;2023-08-20T13:51:07;101212.66;;;37.15;48.11
32237;BME280;18726;44.732;10.550;2023-08-20T13:54:11;101215.28;;;36.91;47.03
32237;BME280;18726;44.732;10.550;2023-08-20T13:57:15;101214.97;;;37.17;46.28
32237;BME280;18726;44.732;10.550;2023-08-20T14:00:18;101205.06;;;37.51;45.02
32237;BME280;18726;44.732;10.550;2023-08-20T14:03:22;101207.69;;;37.38;44.63
32237;BME280;18726;44.732;10.550;2023-08-20T14:06:27;101209.38;;;37.64;42.93
32237;BME280;18726;44.732;10.550;2023-08-20T14:09:32;101209.41;;;37.58;44.59
32237;BME280;18726;44.732;10.550;2023-08-20T14:12:38;101202.53;;;37.42;43.30
32237;BME280;18726;44.732;10.550;2023-08-20T14:15:42;101203.13;;;37.13;46.63
32237;BME280;18726;44.732;10.550;2023-08-20T14:18:46;101206.81;;;36.85;47.04
32237;BME280;18726;44.732;10.550;2023-08-20T14:21:50;101205.97;;;37.02;47.78
32237;BME280;18726;44.732;10.550;2023-08-20T14:24:54;101203.22;;;37.60;45.87
32237;BME280;18726;44.732;10.550;2023-08-20T14:27:57;101203.22;;;37.60;45.40
32237;BME280;18726;44.732;10.550;2023-08-20T14:31:04;101197.75;;;37.73;46.41
32237;BME280;18726;44.732;10.550;2023-08-20T14:34:09;101203.06;;;37.41;45.50
32237;BME280;18726;44.732;10.550;2023-08-20T14:37:13;101197.63;;;37.43;47.05
32237;BME280;18726;44.732;10.550;2023-08-20T14:40:17;101194.63;;;37.82;46.92
32237;BME280;18726;44.732;10.550;2023-08-20T14:43:21;101198.03;;;36.95;47.37
32237;BME280;18726;44.732;10.550;2023-08-20T14:46:26;101177.31;;;37.33;46.03
32237;BME280;18726;44.732;10.550;2023-08-20T14:49:30;101201.13;;;36.85;46.01
32237;BME280;18726;44.732;10.550;2023-08-20T14:52:34;101193.91;;;36.96;48.44
32237;BME280;18726;44.732;10.550;2023-08-20T14:55:38;101192.06;;;37.04;46.16
32237;BME280;18726;44.732;10.550;2023-08-20T14:58:42;101196.44;;;37.05;47.07
32237;BME280;18726;44.732;10.550;2023-08-20T15:01:46;101184.34;;;37.04;48.33
32237;BME280;18726;44.732;10.550;2023-08-20T15:04:50;101173.25;;;37.23;47.97
32237;BME280;18726;44.732;10.550;2023-08-20T15:07:53;101182.88;;;36.64;48.68
32237;BME280;18726;44.732;10.550;2023-08-20T15:11:01;101179.53;;;36.60;46.87
32237;BME280;18726;44.732;10.550;2023-08-20T15:14:07;101177.47;;;36.66;48.09
32237;BME280;18726;44.732;10.550;2023-08-20T15:17:11;101174.69;;;37.41;46.31
32237;BME280;18726;44.732;10.550;2023-08-20T15:20:15;101163.44;;;37.24;46.87
32237;BME280;18726;44.732;10.550;2023-08-20T15:23:19;101174.03;;;37.07;46.48
32237;BME280;18726;44.732;10.550;2023-08-20T15:26:23;101168.38;;;37.01;46.44
32237;BME280;18726;44.732;10.550;2023-08-20T15:29:27;101172.75;;;36.97;46.39
32237;BME280;18726;44.732;10.550;2023-08-20T15:32:31;101171.78;;;36.89;47.04
32237;BME280;18726;44.732;10.550;2023-08-20T15:35:34;101172.53;;;36.72;46.71
32237;BME280;18726;44.732;10.550;2023-08-20T15:42:04;101163.47;;;37.13;45.89
32237;BME280;18726;44.732;10.550;2023-08-20T15:45:18;101168.09;;;37.16;45.46
32237;BME280;18726;44.732;10.550;2023-08-20T15:48:29;101172.25;;;36.98;46.69
32237;BME280;18726;44.732;10.550;2023-08-20T15:51:33;101165.50;;;37.12;46.30
32237;BME280;18726;44.732;10.550;2023-08-20T15:54:41;101177.44;;;36.89;46.03
32237;BME280;18726;44.732;10.550;2023-08-20T15:57:45;101181.00;;;37.06;46.58
32237;BME280;18726;44.732;10.550;2023-08-20T16:00:49;101174.88;;;36.74;47.28
32237;BME280;18726;44.732;10.550;2023-08-20T16:03:53;101184.66;;;36.45;46.85
32237;BME280;18726;44.732;10.550;2023-08-20T16:06:58;101182.06;;;36.25;46.71